Terminal Aerodrome Forecast
Issued by NWS

Home | Current Version | Previous Version | Text Only | Print | Product List | Glossary On
Versions: 1 2 3 4 5 6 7 8 9 10 11 12 13 14 15 16 17 18 19 20 21 22
000
FTUS41 KRLX 261700
TAFCKB
TAF
KCKB 261738Z 2618/2718 32006KT 4SM -RA BR OVC004
     FM262000 28007KT 1 1/2SM -SN BR OVC003
     FM270600 29005KT 2SM -SN BR OVC008
     FM271200 29006KT 3SM -SN BR OVC015
     FM271500 30005KT 6SM -SN BR OVC015=

USA.gov is the U.S. government's official web portal to all federal, state and local government web resources and services.